createdAt,value
2022-09-16T00:00:20.471Z,14.51
2022-09-16T00:02:47.709Z,14.46
2022-09-16T00:05:14.515Z,14.52
2022-09-16T00:07:41.071Z,14.52
2022-09-16T00:10:08.170Z,14.50
2022-09-16T00:12:34.718Z,14.46
2022-09-16T00:15:01.306Z,14.46
2022-09-16T00:17:30.029Z,14.47
2022-09-16T00:19:58.080Z,14.48
2022-09-16T00:22:24.958Z,14.45
2022-09-16T00:24:51.570Z,14.48
2022-09-16T00:27:18.085Z,14.45
2022-09-16T00:29:44.700Z,14.43
2022-09-16T00:32:11.486Z,14.43
2022-09-16T00:34:38.029Z,14.38
2022-09-16T00:37:07.328Z,14.35
2022-09-16T00:39:35.209Z,14.36
2022-09-16T00:42:03.720Z,14.35
2022-09-16T00:44:54.571Z,14.35
2022-09-16T00:47:46.805Z,14.34
2022-09-16T00:50:41.535Z,14.32
2022-09-16T00:53:17.973Z,14.27
2022-09-16T00:55:45.263Z,14.27
2022-09-16T00:58:23.768Z,14.27
2022-09-16T01:00:52.761Z,14.26
2022-09-16T01:03:20.413Z,14.24
2022-09-16T01:05:47.563Z,14.20
2022-09-16T01:08:14.191Z,14.19
2022-09-16T01:10:42.449Z,14.16
2022-09-16T01:13:12.826Z,14.08
2022-09-16T01:16:17.739Z,14.08
2022-09-16T01:18:52.853Z,14.03
2022-09-16T01:21:38.849Z,14.05
2022-09-16T01:24:11.030Z,14.03
2022-09-16T01:27:06.817Z,13.98
2022-09-16T01:30:06.412Z,13.97
2022-09-16T01:32:54.252Z,13.95
2022-09-16T01:35:25.626Z,13.95
2022-09-16T01:38:01.166Z,13.95
2022-09-16T01:40:55.509Z,13.93
2022-09-16T01:43:28.479Z,13.88
2022-09-16T01:46:27.871Z,13.92
2022-09-16T01:49:16.729Z,13.92
2022-09-16T01:52:16.856Z,13.91
2022-09-16T01:54:49.911Z,13.91
2022-09-16T01:57:26.399Z,13.86
2022-09-16T02:00:06.520Z,13.84
2022-09-16T02:02:51.028Z,13.82
2022-09-16T02:05:50.117Z,13.83
2022-09-16T02:08:26.199Z,13.84
2022-09-16T02:11:01.869Z,13.82
2022-09-16T02:13:34.271Z,13.84
2022-09-16T02:16:10.690Z,13.82
2022-09-16T02:18:41.166Z,13.81
2022-09-16T02:21:11.573Z,13.87
2022-09-16T02:23:43.914Z,13.84
2022-09-16T02:26:14.368Z,13.91
2022-09-16T02:28:44.012Z,13.89
2022-09-16T02:31:12.893Z,13.85
2022-09-16T02:33:53.180Z,13.83
2022-09-16T02:36:25.768Z,13.85
2022-09-16T02:39:16.351Z,13.87
2022-09-16T02:41:43.007Z,13.89
2022-09-16T02:44:10.873Z,13.89
2022-09-16T02:46:55.560Z,13.78
2022-09-16T02:49:30.977Z,13.80
2022-09-16T02:52:28.707Z,13.78
2022-09-16T02:55:18.115Z,13.74
2022-09-16T02:57:44.695Z,13.73
2022-09-16T03:00:11.374Z,13.69
2022-09-16T03:02:38.319Z,13.65
2022-09-16T03:05:06.020Z,13.63
2022-09-16T03:07:33.642Z,13.65
2022-09-16T03:10:00.281Z,13.64
2022-09-16T03:12:47.041Z,13.60
2022-09-16T03:15:31.726Z,13.56
2022-09-16T03:18:04.825Z,13.55
2022-09-16T03:20:40.524Z,13.55
2022-09-16T03:23:28.858Z,13.57
2022-09-16T03:26:16.854Z,13.55
2022-09-16T03:28:54.993Z,13.54
2022-09-16T03:31:30.743Z,13.49
2022-09-16T03:34:21.400Z,13.52
2022-09-16T03:36:53.479Z,13.52
2022-09-16T03:39:22.236Z,13.54
2022-09-16T03:41:49.435Z,13.55
2022-09-16T03:44:16.019Z,13.58
2022-09-16T03:46:42.974Z,13.57
2022-09-16T03:49:10.847Z,13.57
2022-09-16T03:51:37.377Z,13.59
2022-09-16T03:54:04.629Z,13.58
2022-09-16T03:56:31.146Z,13.55
2022-09-16T03:58:57.734Z,13.53
2022-09-16T04:01:24.517Z,13.55
2022-09-16T04:03:52.332Z,13.60
2022-09-16T04:06:18.927Z,13.60
2022-09-16T04:08:45.539Z,13.62
2022-09-16T04:11:12.089Z,13.64
2022-09-16T04:13:38.616Z,13.63
2022-09-16T04:16:05.477Z,13.62
2022-09-16T04:18:33.859Z,13.60
2022-09-16T04:21:03.509Z,13.60
2022-09-16T04:23:31.232Z,13.55
2022-09-16T04:26:00.023Z,13.60
2022-09-16T04:28:27.363Z,13.61
2022-09-16T04:30:54.005Z,13.60
2022-09-16T04:33:20.623Z,13.62
2022-09-16T04:35:47.883Z,13.65
2022-09-16T04:38:14.429Z,13.65
2022-09-16T04:40:40.951Z,13.64
2022-09-16T04:43:07.538Z,13.66
2022-09-16T04:45:34.049Z,13.67
2022-09-16T04:48:00.722Z,13.71
2022-09-16T04:50:27.745Z,13.75
2022-09-16T04:52:54.910Z,13.78
2022-09-16T04:55:24.444Z,13.82
2022-09-16T04:57:51.307Z,13.85
2022-09-16T05:00:18.381Z,13.86
2022-09-16T05:02:46.070Z,13.87
2022-09-16T05:05:13.178Z,13.83
2022-09-16T05:07:39.717Z,13.93
2022-09-16T05:10:06.780Z,13.94
2022-09-16T05:12:33.387Z,13.91
2022-09-16T05:14:59.929Z,13.93
2022-09-16T05:17:49.438Z,13.87
2022-09-16T05:20:14.207Z,13.93
2022-09-16T05:22:40.750Z,13.98
2022-09-16T05:25:07.616Z,13.97
2022-09-16T05:27:34.349Z,13.99
2022-09-16T05:30:00.861Z,14.07
2022-09-16T05:32:27.530Z,14.13
2022-09-16T05:34:54.863Z,14.21
2022-09-16T05:37:21.377Z,14.30
2022-09-16T05:39:48.110Z,14.31
2022-09-16T05:42:14.739Z,14.34
2022-09-16T05:44:41.271Z,14.38
2022-09-16T05:47:07.796Z,14.36
2022-09-16T05:49:34.346Z,14.38
2022-09-16T05:52:00.920Z,14.44
2022-09-16T05:54:27.978Z,14.44
2022-09-16T05:56:54.591Z,14.45
2022-09-16T05:59:21.407Z,14.48
2022-09-16T06:01:48.031Z,14.51
2022-09-16T06:04:16.020Z,14.50
2022-09-16T06:06:46.894Z,14.53
2022-09-16T06:09:31.656Z,14.53
2022-09-16T06:12:01.915Z,14.55
2022-09-16T06:14:29.190Z,14.57
2022-09-16T06:16:56.104Z,14.58
2022-09-16T06:19:22.708Z,14.58
2022-09-16T06:21:49.347Z,14.60
2022-09-16T06:24:17.646Z,14.66
2022-09-16T06:26:45.782Z,14.74
2022-09-16T06:29:13.420Z,14.78
2022-09-16T06:31:40.655Z,14.87
2022-09-16T06:34:08.630Z,14.92
2022-09-16T06:36:40.367Z,14.97
2022-09-16T06:39:12.260Z,15.03
2022-09-16T06:41:38.779Z,15.09
2022-09-16T06:44:05.291Z,15.17
2022-09-16T06:46:31.854Z,15.25
2022-09-16T06:49:01.547Z,15.31
2022-09-16T06:51:32.238Z,15.35
2022-09-16T06:54:07.048Z,15.41
2022-09-16T06:56:36.117Z,15.57
2022-09-16T06:59:03.599Z,15.62
2022-09-16T07:01:31.803Z,15.63
2022-09-16T07:04:03.652Z,15.66
2022-09-16T07:06:57.402Z,15.73
2022-09-16T07:09:17.691Z,15.71
2022-09-16T07:11:44.643Z,15.68
2022-09-16T07:14:11.171Z,15.68
2022-09-16T07:16:37.828Z,15.72
2022-09-16T07:19:05.351Z,15.74
2022-09-16T07:21:31.961Z,15.78
2022-09-16T07:24:01.107Z,15.82
2022-09-16T07:26:31.052Z,15.86
2022-09-16T07:29:01.152Z,15.95
2022-09-16T07:31:30.739Z,15.96
2022-09-16T07:34:03.497Z,16.00
2022-09-16T07:36:42.898Z,16.07
2022-09-16T07:39:09.637Z,16.14
2022-09-16T07:41:38.380Z,16.18
2022-09-16T07:44:07.445Z,16.26
2022-09-16T07:46:36.025Z,16.34
2022-09-16T07:49:05.215Z,16.45
2022-09-16T07:51:31.819Z,16.62
2022-09-16T07:54:03.532Z,16.73
2022-09-16T07:56:34.479Z,16.81
2022-09-16T07:59:02.721Z,16.90
2022-09-16T08:01:31.234Z,16.93
2022-09-16T08:03:58.462Z,16.89
2022-09-16T08:06:27.526Z,16.91
2022-09-16T08:08:57.683Z,16.92
2022-09-16T08:11:30.459Z,16.98
2022-09-16T08:14:00.559Z,17.04
2022-09-16T08:16:27.865Z,17.12
2022-09-16T08:18:56.043Z,17.20
2022-09-16T08:21:25.708Z,17.24
2022-09-16T08:23:52.562Z,17.28
2022-09-16T08:26:20.529Z,17.32
2022-09-16T08:29:07.801Z,17.36
2022-09-16T08:31:36.211Z,17.44
2022-09-16T08:34:03.034Z,17.48
2022-09-16T08:36:29.606Z,17.46
2022-09-16T08:38:56.893Z,17.50
2022-09-16T08:41:29.234Z,17.55
2022-09-16T08:44:29.938Z,17.68
2022-09-16T08:47:06.271Z,17.77
2022-09-16T08:49:46.277Z,17.79
2022-09-16T08:52:30.179Z,17.84
2022-09-16T08:55:04.532Z,17.92
2022-09-16T08:57:38.059Z,18.02
2022-09-16T09:00:15.070Z,18.05
2022-09-16T09:02:59.023Z,18.10
2022-09-16T09:05:41.442Z,18.19
2022-09-16T09:08:32.259Z,18.29
2022-09-16T09:11:04.662Z,18.40
2022-09-16T09:13:53.117Z,18.50
2022-09-16T09:16:36.219Z,18.56
2022-09-16T09:19:02.785Z,18.54
2022-09-16T09:21:35.394Z,18.55
2022-09-16T09:24:17.895Z,18.63
2022-09-16T09:27:15.171Z,18.73
2022-09-16T09:29:56.622Z,18.77
2022-09-16T09:32:23.160Z,18.76
2022-09-16T09:35:14.522Z,18.87
2022-09-16T09:37:43.917Z,18.88
2022-09-16T09:40:10.459Z,18.91
2022-09-16T09:42:47.349Z,18.89
2022-09-16T09:45:27.170Z,18.90
2022-09-16T09:48:15.319Z,18.96
2022-09-16T09:50:45.100Z,19.11
2022-09-16T09:53:11.592Z,19.14
2022-09-16T09:55:40.858Z,18.96
2022-09-16T09:58:32.185Z,18.86
2022-09-16T10:00:58.830Z,18.95
2022-09-16T10:03:28.073Z,18.99
2022-09-16T10:05:55.009Z,19.02
2022-09-16T10:08:21.749Z,19.01
2022-09-16T10:10:56.436Z,19.08
2022-09-16T10:13:25.839Z,19.06
2022-09-16T10:16:14.594Z,19.14
2022-09-16T10:18:42.427Z,19.20
2022-09-16T10:21:16.904Z,19.33
2022-09-16T10:23:55.200Z,19.51
2022-09-16T10:26:25.077Z,19.75
2022-09-16T10:29:13.614Z,19.96
2022-09-16T10:31:41.952Z,20.13
2022-09-16T10:34:29.438Z,20.25
2022-09-16T10:37:17.367Z,20.28
2022-09-16T10:39:57.163Z,20.21
2022-09-16T10:42:26.603Z,20.27
2022-09-16T10:44:57.282Z,20.28
2022-09-16T10:47:28.346Z,20.03
2022-09-16T10:49:57.832Z,19.89
2022-09-16T10:52:27.416Z,19.71
2022-09-16T10:54:55.002Z,19.67
2022-09-16T10:57:30.943Z,19.63
2022-09-16T10:59:57.461Z,19.51
2022-09-16T11:02:52.748Z,19.55
2022-09-16T11:05:28.925Z,19.70
2022-09-16T11:07:55.462Z,19.94
2022-09-16T11:10:34.325Z,19.95
2022-09-16T11:13:19.175Z,19.85
2022-09-16T11:16:19.516Z,19.83
2022-09-16T11:19:01.977Z,19.73
2022-09-16T11:21:31.457Z,19.71
2022-09-16T11:24:16.380Z,19.72
2022-09-16T11:26:54.199Z,19.63
2022-09-16T11:29:27.459Z,20.07
2022-09-16T11:32:12.601Z,20.61
2022-09-16T11:34:51.095Z,20.83
2022-09-16T11:37:38.633Z,21.01
2022-09-16T11:40:31.462Z,21.32
2022-09-16T11:43:32.992Z,21.84
2022-09-16T11:46:24.176Z,22.01
2022-09-16T11:49:13.946Z,21.87
2022-09-16T11:51:40.505Z,21.57
2022-09-16T11:54:31.463Z,21.39
2022-09-16T11:57:03.909Z,21.23
2022-09-16T11:59:48.943Z,21.23
2022-09-16T12:02:31.230Z,21.09
2022-09-16T12:05:21.428Z,21.15
2022-09-16T12:08:02.524Z,21.45
2022-09-16T12:10:46.787Z,21.25
2022-09-16T12:13:19.895Z,21.05
2022-09-16T12:16:00.029Z,20.87
2022-09-16T12:18:44.397Z,20.78
2022-09-16T12:21:14.449Z,20.62
2022-09-16T12:23:46.125Z,20.40
2022-09-16T12:26:21.196Z,20.40
2022-09-16T12:29:02.434Z,20.35
2022-09-16T12:32:01.409Z,20.68
2022-09-16T12:34:33.943Z,21.19
2022-09-16T12:37:10.585Z,22.51
2022-09-16T12:39:37.208Z,23.90
2022-09-16T12:42:06.445Z,24.67
2022-09-16T12:44:39.041Z,24.20
2022-09-16T12:47:14.283Z,23.76
2022-09-16T12:50:22.879Z,23.33
2022-09-16T12:53:04.425Z,22.85
2022-09-16T12:55:52.470Z,22.23
2022-09-16T12:58:24.661Z,21.54
2022-09-16T13:01:16.736Z,21.37
2022-09-16T13:03:50.903Z,21.02
2022-09-16T13:06:34.436Z,21.00
2022-09-16T13:09:26.692Z,20.86
2022-09-16T13:14:47.300Z,20.47
2022-09-16T13:17:14.284Z,20.42
2022-09-16T13:19:52.988Z,20.29
2022-09-16T13:22:22.140Z,20.39
2022-09-16T13:25:17.088Z,20.88
2022-09-16T13:27:56.650Z,21.78
2022-09-16T13:30:32.685Z,23.19
2022-09-16T13:33:02.120Z,24.25
2022-09-16T13:35:31.392Z,25.41
2022-09-16T13:38:00.509Z,26.42
2022-09-16T13:40:30.162Z,26.42
2022-09-16T13:43:08.834Z,25.77
2022-09-16T13:45:38.688Z,25.47
2022-09-16T13:48:16.748Z,24.23
2022-09-16T13:50:51.734Z,23.67
2022-09-16T13:53:28.782Z,23.26
2022-09-16T13:56:05.982Z,22.85
2022-09-16T13:59:15.917Z,22.34
2022-09-16T14:02:04.166Z,22.06
2022-09-16T14:05:02.713Z,22.00
2022-09-16T14:07:47.779Z,22.10
2022-09-16T14:10:38.055Z,21.96
2022-09-16T14:13:12.012Z,21.52
2022-09-16T14:15:45.414Z,21.58
2022-09-16T14:18:20.109Z,21.90
2022-09-16T14:21:06.466Z,22.16
2022-09-16T14:23:33.897Z,22.80
2022-09-16T14:26:29.149Z,23.50
2022-09-16T14:29:03.689Z,24.09
2022-09-16T14:31:32.517Z,24.59
2022-09-16T14:34:08.436Z,24.93
2022-09-16T14:36:38.773Z,25.42
2022-09-16T14:39:08.280Z,25.83
2022-09-16T14:41:43.487Z,25.81
2022-09-16T14:44:22.703Z,26.02
2022-09-16T14:47:09.434Z,26.03
2022-09-16T14:49:37.939Z,26.14
2022-09-16T14:52:04.835Z,26.26
2022-09-16T14:54:32.229Z,26.00
2022-09-16T14:57:00.077Z,25.75
2022-09-16T14:59:35.591Z,25.12
2022-09-16T15:02:14.872Z,24.32
2022-09-16T15:04:47.095Z,23.57
2022-09-16T15:07:24.714Z,23.32
2022-09-16T15:10:23.923Z,22.64
2022-09-16T15:12:57.151Z,21.89
2022-09-16T15:15:30.772Z,21.67
2022-09-16T15:18:06.402Z,21.23
2022-09-16T15:20:37.781Z,20.87
2022-09-16T15:23:10.895Z,20.63
2022-09-16T15:25:39.425Z,20.48
2022-09-16T15:28:17.210Z,20.17
2022-09-16T15:30:54.923Z,20.03
2022-09-16T15:33:34.521Z,19.90
2022-09-16T15:36:02.057Z,19.86
2022-09-16T15:38:30.030Z,19.86
2022-09-16T15:41:05.557Z,19.83
2022-09-16T15:43:41.681Z,19.73
2022-09-16T15:46:20.971Z,19.51
2022-09-16T15:48:58.472Z,19.48
2022-09-16T15:51:39.541Z,19.30
2022-09-16T15:54:47.813Z,19.08
2022-09-16T15:57:38.535Z,18.91
2022-09-16T16:00:16.051Z,18.74
2022-09-16T16:03:17.990Z,18.60
2022-09-16T16:05:51.690Z,18.43
2022-09-16T16:08:58.293Z,18.36
2022-09-16T16:11:25.662Z,18.30
2022-09-16T16:13:52.493Z,18.23
2022-09-16T16:16:19.687Z,18.07
2022-09-16T16:18:46.593Z,17.96
2022-09-16T16:21:15.967Z,18.00
2022-09-16T16:23:43.503Z,17.85
2022-09-16T16:26:11.379Z,17.80
2022-09-16T16:28:38.777Z,17.69
2022-09-16T16:31:16.936Z,17.69
2022-09-16T16:33:48.174Z,17.67
2022-09-16T16:36:16.929Z,17.53
2022-09-16T16:38:45.495Z,17.53
2022-09-16T16:41:13.520Z,17.53
2022-09-16T16:43:40.155Z,17.50
2022-09-16T16:46:07.018Z,17.40
2022-09-16T16:48:34.204Z,17.42
2022-09-16T16:51:06.138Z,17.32
2022-09-16T16:53:32.835Z,17.20
2022-09-16T16:56:14.491Z,17.07
2022-09-16T16:58:43.095Z,16.95
2022-09-16T17:01:12.804Z,16.90
2022-09-16T17:03:41.041Z,16.78
2022-09-16T17:06:07.618Z,16.68
2022-09-16T17:08:35.615Z,16.64
2022-09-16T17:11:17.045Z,16.47
2022-09-16T17:13:47.482Z,16.45
2022-09-16T17:16:17.819Z,16.31
2022-09-16T17:18:44.577Z,16.21
2022-09-16T17:21:20.070Z,16.09
2022-09-16T17:23:46.824Z,15.99
2022-09-16T17:26:14.447Z,15.91
2022-09-16T17:28:43.343Z,15.78
2022-09-16T17:31:11.305Z,15.73
2022-09-16T17:33:37.918Z,15.64
2022-09-16T17:36:07.235Z,15.56
2022-09-16T17:38:34.394Z,15.46
2022-09-16T17:41:09.471Z,15.35
2022-09-16T17:43:36.478Z,15.20
2022-09-16T17:46:04.973Z,15.15
2022-09-16T17:48:32.378Z,15.10
2022-09-16T17:50:59.774Z,14.99
2022-09-16T17:53:26.427Z,15.01
2022-09-16T17:55:53.134Z,15.01
2022-09-16T17:58:19.657Z,15.01
2022-09-16T18:00:46.203Z,15.00
2022-09-16T18:03:13.478Z,14.90
2022-09-16T18:05:40.404Z,14.92
2022-09-16T18:08:06.999Z,14.87
2022-09-16T18:10:33.691Z,14.81
2022-09-16T18:13:00.699Z,14.76
2022-09-16T18:15:27.287Z,14.64
2022-09-16T18:17:54.492Z,14.59
2022-09-16T18:20:21.434Z,14.44
2022-09-16T18:22:48.594Z,14.36
2022-09-16T18:25:15.215Z,14.32
2022-09-16T18:27:44.160Z,14.21
2022-09-16T18:30:11.687Z,14.10
2022-09-16T18:32:38.254Z,14.08
2022-09-16T18:35:05.219Z,13.98
2022-09-16T18:37:31.723Z,13.95
2022-09-16T18:39:58.319Z,13.91
2022-09-16T18:42:25.076Z,13.90
2022-09-16T18:44:51.902Z,13.82
2022-09-16T18:47:18.473Z,13.87
2022-09-16T18:49:45.011Z,13.81
2022-09-16T18:52:11.614Z,13.86
2022-09-16T18:54:38.313Z,13.86
2022-09-16T18:57:04.874Z,13.89
2022-09-16T18:59:34.132Z,13.89
2022-09-16T19:02:03.588Z,13.89
2022-09-16T19:04:33.107Z,13.82
2022-09-16T19:07:07.374Z,13.81
2022-09-16T19:09:36.413Z,13.78
2022-09-16T19:12:04.069Z,13.78
2022-09-16T19:14:30.782Z,13.73
2022-09-16T19:16:57.381Z,13.66
2022-09-16T19:19:24.038Z,13.56
2022-09-16T19:21:51.110Z,13.55
2022-09-16T19:24:20.417Z,13.50
2022-09-16T19:26:48.019Z,13.46
2022-09-16T19:29:16.039Z,13.43
2022-09-16T19:31:44.310Z,13.40
2022-09-16T19:34:12.201Z,13.37
2022-09-16T19:36:39.928Z,13.29
2022-09-16T19:39:07.295Z,13.29
2022-09-16T19:41:36.275Z,13.29
2022-09-16T19:44:06.045Z,13.25
2022-09-16T19:46:36.362Z,13.18
2022-09-16T19:49:03.807Z,13.17
2022-09-16T19:51:30.375Z,13.15
2022-09-16T19:53:58.431Z,13.06
2022-09-16T19:56:29.893Z,12.99
2022-09-16T19:58:56.492Z,12.94
2022-09-16T20:01:25.560Z,12.86
2022-09-16T20:03:52.456Z,12.82
2022-09-16T20:06:24.222Z,12.78
2022-09-16T20:08:56.619Z,12.71
2022-09-16T20:11:25.817Z,12.72
2022-09-16T20:14:01.761Z,12.69
2022-09-16T20:16:30.692Z,12.69
2022-09-16T20:18:58.043Z,12.72
2022-09-16T20:21:26.634Z,12.73
2022-09-16T20:23:54.325Z,12.72
2022-09-16T20:26:22.018Z,12.69
2022-09-16T20:28:50.942Z,12.65
2022-09-16T20:31:32.827Z,12.62
2022-09-16T20:34:01.231Z,12.57
2022-09-16T20:36:32.193Z,12.53
2022-09-16T20:38:59.852Z,12.47
2022-09-16T20:41:29.347Z,12.42
2022-09-16T20:43:56.699Z,12.42
2022-09-16T20:46:26.775Z,12.41
2022-09-16T20:48:54.603Z,12.44
2022-09-16T20:51:23.592Z,12.48
2022-09-16T20:53:57.301Z,12.50
2022-09-16T20:56:24.925Z,12.50
2022-09-16T20:58:51.977Z,12.54
2022-09-16T21:01:22.898Z,12.54
2022-09-16T21:03:58.213Z,12.57
2022-09-16T21:06:25.791Z,12.59
2022-09-16T21:08:53.987Z,12.61
2022-09-16T21:11:20.948Z,12.68
2022-09-16T21:13:56.522Z,12.69
2022-09-16T21:16:23.642Z,12.65
2022-09-16T21:18:55.175Z,12.59
2022-09-16T21:21:24.481Z,12.54
2022-09-16T21:23:52.793Z,12.46
2022-09-16T21:26:27.236Z,12.40
2022-09-16T21:28:54.920Z,12.32
2022-09-16T21:31:21.520Z,12.26
2022-09-16T21:33:51.784Z,12.18
2022-09-16T21:36:20.226Z,12.09
2022-09-16T21:38:46.995Z,11.94
2022-09-16T21:41:16.147Z,11.85
2022-09-16T21:43:55.584Z,11.84
2022-09-16T21:46:30.332Z,11.87
2022-09-16T21:49:01.151Z,11.79
2022-09-16T21:51:35.368Z,11.78
2022-09-16T21:54:03.810Z,11.78
2022-09-16T21:56:31.375Z,11.80
2022-09-16T21:58:58.420Z,11.75
2022-09-16T22:01:30.316Z,11.74
2022-09-16T22:03:58.403Z,11.78
2022-09-16T22:06:28.275Z,11.77
2022-09-16T22:08:57.251Z,11.78
2022-09-16T22:11:25.437Z,11.82
2022-09-16T22:13:53.894Z,11.85
2022-09-16T22:16:27.080Z,11.86
2022-09-16T22:18:55.638Z,11.84
2022-09-16T22:21:23.183Z,11.84
2022-09-16T22:23:50.297Z,11.82
2022-09-16T22:26:19.633Z,11.81
2022-09-16T22:28:46.399Z,11.79
2022-09-16T22:31:18.874Z,11.73
2022-09-16T22:33:46.953Z,11.76
2022-09-16T22:36:16.639Z,11.74
2022-09-16T22:39:11.210Z,11.73
2022-09-16T22:41:37.932Z,11.65
2022-09-16T22:44:04.763Z,11.64
2022-09-16T22:46:34.312Z,11.64
2022-09-16T22:49:01.652Z,11.62
2022-09-16T22:51:28.980Z,11.60
2022-09-16T22:53:55.721Z,11.57
2022-09-16T22:56:25.481Z,11.58
2022-09-16T22:58:54.233Z,11.57
2022-09-16T23:01:23.758Z,11.48
2022-09-16T23:03:55.852Z,11.40
2022-09-16T23:06:24.691Z,11.43
2022-09-16T23:08:52.335Z,11.33
2022-09-16T23:11:25.334Z,11.31
2022-09-16T23:13:54.862Z,11.31
2022-09-16T23:16:27.045Z,11.31
2022-09-16T23:18:57.727Z,11.26
2022-09-16T23:21:25.485Z,11.23
2022-09-16T23:23:54.556Z,11.22
2022-09-16T23:26:27.161Z,11.20
2022-09-16T23:28:56.204Z,11.13
2022-09-16T23:31:26.615Z,11.17
2022-09-16T23:33:54.201Z,11.13
2022-09-16T23:36:21.573Z,11.14
2022-09-16T23:38:48.405Z,11.13
2022-09-16T23:41:20.674Z,11.10
2022-09-16T23:43:48.958Z,11.11
2022-09-16T23:46:18.023Z,11.10
2022-09-16T23:48:45.194Z,11.09
2022-09-16T23:51:12.605Z,11.09
2022-09-16T23:53:42.177Z,11.09
2022-09-16T23:56:15.823Z,11.09
2022-09-16T23:58:42.493Z,11.13
